sensor_id;sensor_type;location;lat;lon;timestamp;temperature;humidity
67050;DHT22;53955;52.442;13.284;2022-10-31T00:00:24;16.70;77.10
67050;DHT22;53955;52.442;13.284;2022-10-31T00:02:50;16.70;77.30
67050;DHT22;53955;52.442;13.284;2022-10-31T00:05:17;16.70;77.20
67050;DHT22;53955;52.442;13.284;2022-10-31T00:07:45;16.70;77.20
67050;DHT22;53955;52.442;13.284;2022-10-31T00:10:11;16.60;77.30
67050;DHT22;53955;52.442;13.284;2022-10-31T00:12:38;16.70;77.50
67050;DHT22;53955;52.442;13.284;2022-10-31T00:15:05;16.70;76.80
67050;DHT22;53955;52.442;13.284;2022-10-31T00:17:34;16.60;77.40
67050;DHT22;53955;52.442;13.284;2022-10-31T00:20:01;16.50;77.10
67050;DHT22;53955;52.442;13.284;2022-10-31T00:22:27;16.50;77.30
67050;DHT22;53955;52.442;13.284;2022-10-31T00:24:55;16.50;77.40
67050;DHT22;53955;52.442;13.284;2022-10-31T00:27:22;16.60;77.70
67050;DHT22;53955;52.442;13.284;2022-10-31T00:29:48;16.60;77.50
67050;DHT22;53955;52.442;13.284;2022-10-31T00:32:15;16.60;77.90
67050;DHT22;53955;52.442;13.284;2022-10-31T00:34:41;16.60;77.10
67050;DHT22;53955;52.442;13.284;2022-10-31T00:37:08;16.60;77.80
67050;DHT22;53955;52.442;13.284;2022-10-31T00:39:34;16.60;77.40
67050;DHT22;53955;52.442;13.284;2022-10-31T00:42:02;16.60;77.80
67050;DHT22;53955;52.442;13.284;2022-10-31T00:44:29;16.60;77.40
67050;DHT22;53955;52.442;13.284;2022-10-31T00:46:55;16.50;77.70
67050;DHT22;53955;52.442;13.284;2022-10-31T00:49:22;16.50;77.30
67050;DHT22;53955;52.442;13.284;2022-10-31T00:51:48;16.50;77.00
67050;DHT22;53955;52.442;13.284;2022-10-31T00:54:15;16.40;77.50
67050;DHT22;53955;52.442;13.284;2022-10-31T00:56:41;16.40;77.20
67050;DHT22;53955;52.442;13.284;2022-10-31T00:59:09;16.40;77.40
67050;DHT22;53955;52.442;13.284;2022-10-31T01:01:36;16.40;77.40
67050;DHT22;53955;52.442;13.284;2022-10-31T01:04:02;16.30;77.50
67050;DHT22;53955;52.442;13.284;2022-10-31T01:06:29;16.30;77.20
67050;DHT22;53955;52.442;13.284;2022-10-31T01:08:56;16.30;77.60
67050;DHT22;53955;52.442;13.284;2022-10-31T01:11:23;16.20;77.60
67050;DHT22;53955;52.442;13.284;2022-10-31T01:13:51;16.20;77.80
67050;DHT22;53955;52.442;13.284;2022-10-31T01:16:21;16.30;77.80
67050;DHT22;53955;52.442;13.284;2022-10-31T01:18:48;16.30;77.70
67050;DHT22;53955;52.442;13.284;2022-10-31T01:21:16;16.30;77.90
67050;DHT22;53955;52.442;13.284;2022-10-31T01:23:43;16.20;77.50
67050;DHT22;53955;52.442;13.284;2022-10-31T01:26:11;16.20;77.20
67050;DHT22;53955;52.442;13.284;2022-10-31T01:28:44;16.20;77.50
67050;DHT22;53955;52.442;13.284;2022-10-31T01:31:11;16.20;77.40
67050;DHT22;53955;52.442;13.284;2022-10-31T01:33:39;16.20;77.60
67050;DHT22;53955;52.442;13.284;2022-10-31T01:36:17;16.20;77.60
67050;DHT22;53955;52.442;13.284;2022-10-31T01:38:44;16.10;77.20
67050;DHT22;53955;52.442;13.284;2022-10-31T01:41:13;16.20;77.50
67050;DHT22;53955;52.442;13.284;2022-10-31T01:43:45;16.30;77.00
67050;DHT22;53955;52.442;13.284;2022-10-31T01:46:12;16.30;77.20
67050;DHT22;53955;52.442;13.284;2022-10-31T01:48:41;16.30;77.00
67050;DHT22;53955;52.442;13.284;2022-10-31T01:51:08;16.20;77.00
67050;DHT22;53955;52.442;13.284;2022-10-31T01:53:36;16.20;77.00
67050;DHT22;53955;52.442;13.284;2022-10-31T01:56:04;16.10;77.20
67050;DHT22;53955;52.442;13.284;2022-10-31T01:58:31;16.20;76.80
67050;DHT22;53955;52.442;13.284;2022-10-31T02:01:00;16.10;76.90
67050;DHT22;53955;52.442;13.284;2022-10-31T02:03:28;16.10;77.50
67050;DHT22;53955;52.442;13.284;2022-10-31T02:05:57;16.10;77.40
67050;DHT22;53955;52.442;13.284;2022-10-31T02:08:27;16.10;77.40
67050;DHT22;53955;52.442;13.284;2022-10-31T02:10:54;16.10;77.00
67050;DHT22;53955;52.442;13.284;2022-10-31T02:13:22;16.10;77.50
67050;DHT22;53955;52.442;13.284;2022-10-31T02:15:52;16.10;77.30
67050;DHT22;53955;52.442;13.284;2022-10-31T02:18:20;16.10;77.50
67050;DHT22;53955;52.442;13.284;2022-10-31T02:20:53;16.00;77.60
67050;DHT22;53955;52.442;13.284;2022-10-31T02:23:59;16.10;77.40
67050;DHT22;53955;52.442;13.284;2022-10-31T02:26:51;16.00;77.50
67050;DHT22;53955;52.442;13.284;2022-10-31T02:29:38;16.00;77.40
67050;DHT22;53955;52.442;13.284;2022-10-31T02:32:10;15.90;77.70
67050;DHT22;53955;52.442;13.284;2022-10-31T02:34:44;15.90;77.30
67050;DHT22;53955;52.442;13.284;2022-10-31T02:37:14;15.80;77.50
67050;DHT22;53955;52.442;13.284;2022-10-31T02:39:47;15.90;78.00
67050;DHT22;53955;52.442;13.284;2022-10-31T02:42:18;15.80;77.70
67050;DHT22;53955;52.442;13.284;2022-10-31T02:44:51;15.70;77.50
67050;DHT22;53955;52.442;13.284;2022-10-31T02:47:23;15.90;77.90
67050;DHT22;53955;52.442;13.284;2022-10-31T02:49:56;15.70;77.50
67050;DHT22;53955;52.442;13.284;2022-10-31T02:52:28;15.80;77.70
67050;DHT22;53955;52.442;13.284;2022-10-31T02:54:55;15.80;77.60
67050;DHT22;53955;52.442;13.284;2022-10-31T02:57:24;15.80;77.80
67050;DHT22;53955;52.442;13.284;2022-10-31T02:59:55;15.80;77.20
67050;DHT22;53955;52.442;13.284;2022-10-31T03:02:36;15.90;77.50
67050;DHT22;53955;52.442;13.284;2022-10-31T03:08:05;15.80;77.50
67050;DHT22;53955;52.442;13.284;2022-10-31T03:10:37;15.70;77.40
67050;DHT22;53955;52.442;13.284;2022-10-31T03:13:10;15.70;77.70
67050;DHT22;53955;52.442;13.284;2022-10-31T03:15:42;15.70;77.20
67050;DHT22;53955;52.442;13.284;2022-10-31T03:18:14;15.60;77.50
67050;DHT22;53955;52.442;13.284;2022-10-31T03:20:47;15.60;77.50
67050;DHT22;53955;52.442;13.284;2022-10-31T03:23:16;15.50;77.50
67050;DHT22;53955;52.442;13.284;2022-10-31T03:25:45;15.50;77.30
67050;DHT22;53955;52.442;13.284;2022-10-31T03:28:16;15.50;77.40
67050;DHT22;53955;52.442;13.284;2022-10-31T03:30:45;15.50;77.50
67050;DHT22;53955;52.442;13.284;2022-10-31T03:33:17;15.50;77.10
67050;DHT22;53955;52.442;13.284;2022-10-31T03:35:47;15.40;78.50
67050;DHT22;53955;52.442;13.284;2022-10-31T03:38:14;15.40;77.50
67050;DHT22;53955;52.442;13.284;2022-10-31T03:40:43;15.40;77.00
67050;DHT22;53955;52.442;13.284;2022-10-31T03:43:15;15.40;77.00
67050;DHT22;53955;52.442;13.284;2022-10-31T03:45:45;15.40;78.50
67050;DHT22;53955;52.442;13.284;2022-10-31T03:48:14;15.30;78.20
67050;DHT22;53955;52.442;13.284;2022-10-31T03:50:46;15.40;78.50
67050;DHT22;53955;52.442;13.284;2022-10-31T03:53:20;15.30;78.60
67050;DHT22;53955;52.442;13.284;2022-10-31T03:55:51;15.40;78.70
67050;DHT22;53955;52.442;13.284;2022-10-31T03:58:21;15.30;78.80
67050;DHT22;53955;52.442;13.284;2022-10-31T04:00:51;15.30;78.90
67050;DHT22;53955;52.442;13.284;2022-10-31T04:03:23;15.30;78.80
67050;DHT22;53955;52.442;13.284;2022-10-31T04:05:53;15.20;79.30
67050;DHT22;53955;52.442;13.284;2022-10-31T04:08:24;15.30;78.80
67050;DHT22;53955;52.442;13.284;2022-10-31T04:10:51;15.30;78.70
67050;DHT22;53955;52.442;13.284;2022-10-31T04:13:21;15.30;78.30
67050;DHT22;53955;52.442;13.284;2022-10-31T04:15:51;15.30;78.60
67050;DHT22;53955;52.442;13.284;2022-10-31T04:18:19;15.30;78.30
67050;DHT22;53955;52.442;13.284;2022-10-31T04:20:47;15.20;78.60
67050;DHT22;53955;52.442;13.284;2022-10-31T04:23:19;15.20;78.50
67050;DHT22;53955;52.442;13.284;2022-10-31T04:25:46;15.30;78.40
67050;DHT22;53955;52.442;13.284;2022-10-31T04:28:12;15.10;78.20
67050;DHT22;53955;52.442;13.284;2022-10-31T04:30:39;15.20;78.50
67050;DHT22;53955;52.442;13.284;2022-10-31T04:33:05;15.50;82.40
67050;DHT22;53955;52.442;13.284;2022-10-31T04:35:33;15.70;76.30
67050;DHT22;53955;52.442;13.284;2022-10-31T04:38:00;15.50;76.10
67050;DHT22;53955;52.442;13.284;2022-10-31T04:40:26;15.50;76.30
67050;DHT22;53955;52.442;13.284;2022-10-31T04:42:53;15.40;77.50
67050;DHT22;53955;52.442;13.284;2022-10-31T04:45:20;15.40;77.70
67050;DHT22;53955;52.442;13.284;2022-10-31T04:47:46;15.20;78.00
67050;DHT22;53955;52.442;13.284;2022-10-31T04:50:13;15.30;78.50
67050;DHT22;53955;52.442;13.284;2022-10-31T04:52:41;15.20;78.50
67050;DHT22;53955;52.442;13.284;2022-10-31T04:55:09;15.10;78.70
67050;DHT22;53955;52.442;13.284;2022-10-31T04:57:40;15.30;78.40
67050;DHT22;53955;52.442;13.284;2022-10-31T05:00:08;15.30;78.60
67050;DHT22;53955;52.442;13.284;2022-10-31T05:02:34;15.30;78.90
67050;DHT22;53955;52.442;13.284;2022-10-31T05:05:08;15.20;78.50
67050;DHT22;53955;52.442;13.284;2022-10-31T05:07:38;15.20;78.90
67050;DHT22;53955;52.442;13.284;2022-10-31T05:10:07;15.40;78.70
67050;DHT22;53955;52.442;13.284;2022-10-31T05:12:35;15.30;78.80
67050;DHT22;53955;52.442;13.284;2022-10-31T05:15:01;15.40;79.10
67050;DHT22;53955;52.442;13.284;2022-10-31T05:17:28;15.30;79.10
67050;DHT22;53955;52.442;13.284;2022-10-31T05:19:54;15.30;78.90
67050;DHT22;53955;52.442;13.284;2022-10-31T05:22:21;15.50;77.50
67050;DHT22;53955;52.442;13.284;2022-10-31T05:24:47;15.40;78.90
67050;DHT22;53955;52.442;13.284;2022-10-31T05:27:15;15.50;77.80
67050;DHT22;53955;52.442;13.284;2022-10-31T05:29:42;15.50;77.80
67050;DHT22;53955;52.442;13.284;2022-10-31T05:32:08;15.60;77.80
67050;DHT22;53955;52.442;13.284;2022-10-31T05:34:35;15.60;77.70
67050;DHT22;53955;52.442;13.284;2022-10-31T05:37:01;15.60;77.80
67050;DHT22;53955;52.442;13.284;2022-10-31T05:39:28;15.70;77.20
67050;DHT22;53955;52.442;13.284;2022-10-31T05:41:54;15.60;77.20
67050;DHT22;53955;52.442;13.284;2022-10-31T05:44:22;15.60;77.50
67050;DHT22;53955;52.442;13.284;2022-10-31T05:46:49;15.60;77.60
67050;DHT22;53955;52.442;13.284;2022-10-31T05:49:15;15.60;77.90
67050;DHT22;53955;52.442;13.284;2022-10-31T05:51:42;15.60;77.40
67050;DHT22;53955;52.442;13.284;2022-10-31T05:54:09;15.60;77.70
67050;DHT22;53955;52.442;13.284;2022-10-31T05:56:35;15.60;77.90
67050;DHT22;53955;52.442;13.284;2022-10-31T05:59:02;15.70;78.00
67050;DHT22;53955;52.442;13.284;2022-10-31T06:01:30;15.60;77.70
67050;DHT22;53955;52.442;13.284;2022-10-31T06:03:56;15.70;77.90
67050;DHT22;53955;52.442;13.284;2022-10-31T06:06:23;15.80;77.30
67050;DHT22;53955;52.442;13.284;2022-10-31T06:08:49;15.90;77.30
67050;DHT22;53955;52.442;13.284;2022-10-31T06:11:16;16.00;77.00
67050;DHT22;53955;52.442;13.284;2022-10-31T06:13:42;15.90;77.40
67050;DHT22;53955;52.442;13.284;2022-10-31T06:16:10;16.00;77.20
67050;DHT22;53955;52.442;13.284;2022-10-31T06:18:38;16.00;76.70
67050;DHT22;53955;52.442;13.284;2022-10-31T06:21:04;16.00;76.90
67050;DHT22;53955;52.442;13.284;2022-10-31T06:23:31;16.10;76.50
67050;DHT22;53955;52.442;13.284;2022-10-31T06:25:57;16.20;76.10
67050;DHT22;53955;52.442;13.284;2022-10-31T06:28:24;16.20;76.60
67050;DHT22;53955;52.442;13.284;2022-10-31T06:30:50;16.20;76.20
67050;DHT22;53955;52.442;13.284;2022-10-31T06:33:17;16.20;76.10
67050;DHT22;53955;52.442;13.284;2022-10-31T06:35:46;16.20;76.00
67050;DHT22;53955;52.442;13.284;2022-10-31T06:38:13;16.40;75.90
67050;DHT22;53955;52.442;13.284;2022-10-31T06:40:40;16.50;75.90
67050;DHT22;53955;52.442;13.284;2022-10-31T06:43:07;16.70;74.90
67050;DHT22;53955;52.442;13.284;2022-10-31T06:45:34;16.70;74.70
67050;DHT22;53955;52.442;13.284;2022-10-31T06:48:00;17.40;72.90
67050;DHT22;53955;52.442;13.284;2022-10-31T06:50:27;17.90;70.70
67050;DHT22;53955;52.442;13.284;2022-10-31T06:52:56;17.90;70.70
67050;DHT22;53955;52.442;13.284;2022-10-31T06:55:24;17.60;71.40
67050;DHT22;53955;52.442;13.284;2022-10-31T06:57:51;17.30;73.30
67050;DHT22;53955;52.442;13.284;2022-10-31T07:00:17;17.20;72.70
67050;DHT22;53955;52.442;13.284;2022-10-31T07:02:52;17.20;73.40
67050;DHT22;53955;52.442;13.284;2022-10-31T07:05:19;17.20;73.30
67050;DHT22;53955;52.442;13.284;2022-10-31T07:07:45;17.30;73.50
67050;DHT22;53955;52.442;13.284;2022-10-31T07:10:13;17.40;72.70
67050;DHT22;53955;52.442;13.284;2022-10-31T07:12:40;17.40;73.60
67050;DHT22;53955;52.442;13.284;2022-10-31T07:15:07;17.50;73.20
67050;DHT22;53955;52.442;13.284;2022-10-31T07:17:34;17.60;72.90
67050;DHT22;53955;52.442;13.284;2022-10-31T07:20:00;17.60;72.70
67050;DHT22;53955;52.442;13.284;2022-10-31T07:22:32;17.70;73.10
67050;DHT22;53955;52.442;13.284;2022-10-31T07:24:59;17.70;73.40
67050;DHT22;53955;52.442;13.284;2022-10-31T07:27:27;17.80;73.30
67050;DHT22;53955;52.442;13.284;2022-10-31T07:29:53;18.00;73.20
67050;DHT22;53955;52.442;13.284;2022-10-31T07:32:20;18.10;72.50
67050;DHT22;53955;52.442;13.284;2022-10-31T07:34:46;18.30;70.90
67050;DHT22;53955;52.442;13.284;2022-10-31T07:37:13;18.50;70.30
67050;DHT22;53955;52.442;13.284;2022-10-31T07:39:39;18.60;70.30
67050;DHT22;53955;52.442;13.284;2022-10-31T07:42:06;18.60;69.70
67050;DHT22;53955;52.442;13.284;2022-10-31T07:44:33;18.50;70.60
67050;DHT22;53955;52.442;13.284;2022-10-31T07:47:00;18.80;69.90
67050;DHT22;53955;52.442;13.284;2022-10-31T07:49:26;18.90;68.90
67050;DHT22;53955;52.442;13.284;2022-10-31T07:51:53;19.10;68.60
67050;DHT22;53955;52.442;13.284;2022-10-31T07:54:21;19.00;69.30
67050;DHT22;53955;52.442;13.284;2022-10-31T07:56:47;19.00;69.10
67050;DHT22;53955;52.442;13.284;2022-10-31T07:59:14;18.90;69.20
67050;DHT22;53955;52.442;13.284;2022-10-31T08:01:41;18.70;70.40
67050;DHT22;53955;52.442;13.284;2022-10-31T08:04:08;18.80;70.10
67050;DHT22;53955;52.442;13.284;2022-10-31T08:06:35;18.70;70.40
67050;DHT22;53955;52.442;13.284;2022-10-31T08:09:01;18.50;71.30
67050;DHT22;53955;52.442;13.284;2022-10-31T08:11:28;18.50;70.40
67050;DHT22;53955;52.442;13.284;2022-10-31T08:13:54;18.40;71.80
67050;DHT22;53955;52.442;13.284;2022-10-31T08:16:21;18.30;72.80
67050;DHT22;53955;52.442;13.284;2022-10-31T08:18:49;18.20;72.90
67050;DHT22;53955;52.442;13.284;2022-10-31T08:21:15;18.10;75.00
67050;DHT22;53955;52.442;13.284;2022-10-31T08:23:42;18.20;73.40
67050;DHT22;53955;52.442;13.284;2022-10-31T08:26:08;18.20;73.10
67050;DHT22;53955;52.442;13.284;2022-10-31T08:28:35;18.20;72.70
67050;DHT22;53955;52.442;13.284;2022-10-31T08:31:01;18.20;73.20
67050;DHT22;53955;52.442;13.284;2022-10-31T08:33:28;18.30;72.60
67050;DHT22;53955;52.442;13.284;2022-10-31T08:35:57;18.20;73.40
67050;DHT22;53955;52.442;13.284;2022-10-31T08:38:24;18.30;73.20
67050;DHT22;53955;52.442;13.284;2022-10-31T08:40:50;18.20;73.60
67050;DHT22;53955;52.442;13.284;2022-10-31T08:43:17;18.30;73.50
67050;DHT22;53955;52.442;13.284;2022-10-31T08:45:47;18.40;72.60
67050;DHT22;53955;52.442;13.284;2022-10-31T08:48:15;18.50;72.20
67050;DHT22;53955;52.442;13.284;2022-10-31T08:50:43;18.40;72.40
67050;DHT22;53955;52.442;13.284;2022-10-31T08:53:13;18.30;72.70
67050;DHT22;53955;52.442;13.284;2022-10-31T08:55:40;18.40;72.80
67050;DHT22;53955;52.442;13.284;2022-10-31T08:58:12;18.50;72.90
67050;DHT22;53955;52.442;13.284;2022-10-31T09:00:38;18.40;72.70
67050;DHT22;53955;52.442;13.284;2022-10-31T09:03:06;18.60;72.70
67050;DHT22;53955;52.442;13.284;2022-10-31T09:05:35;18.60;72.50
67050;DHT22;53955;52.442;13.284;2022-10-31T09:08:03;18.60;71.60
67050;DHT22;53955;52.442;13.284;2022-10-31T09:10:33;18.70;71.30
67050;DHT22;53955;52.442;13.284;2022-10-31T09:13:01;18.60;71.10
67050;DHT22;53955;52.442;13.284;2022-10-31T09:15:32;18.60;71.80
67050;DHT22;53955;52.442;13.284;2022-10-31T09:17:59;18.50;72.20
67050;DHT22;53955;52.442;13.284;2022-10-31T09:20:26;18.40;72.90
67050;DHT22;53955;52.442;13.284;2022-10-31T09:22:56;18.40;72.60
67050;DHT22;53955;52.442;13.284;2022-10-31T09:25:22;18.60;71.70
67050;DHT22;53955;52.442;13.284;2022-10-31T09:27:50;18.50;72.20
67050;DHT22;53955;52.442;13.284;2022-10-31T09:30:17;18.60;72.40
67050;DHT22;53955;52.442;13.284;2022-10-31T09:32:43;18.60;72.80
67050;DHT22;53955;52.442;13.284;2022-10-31T09:35:10;18.50;72.90
67050;DHT22;53955;52.442;13.284;2022-10-31T09:37:36;18.60;72.20
67050;DHT22;53955;52.442;13.284;2022-10-31T09:40:04;18.60;71.90
67050;DHT22;53955;52.442;13.284;2022-10-31T09:42:45;18.60;72.60
67050;DHT22;53955;52.442;13.284;2022-10-31T09:45:20;18.70;72.70
67050;DHT22;53955;52.442;13.284;2022-10-31T09:47:58;18.70;72.60
67050;DHT22;53955;52.442;13.284;2022-10-31T09:50:30;18.60;72.50
67050;DHT22;53955;52.442;13.284;2022-10-31T09:53:00;18.70;72.80
67050;DHT22;53955;52.442;13.284;2022-10-31T09:55:34;18.70;72.30
67050;DHT22;53955;52.442;13.284;2022-10-31T09:58:02;18.70;72.50
67050;DHT22;53955;52.442;13.284;2022-10-31T10:00:30;18.80;73.10
67050;DHT22;53955;52.442;13.284;2022-10-31T10:03:04;18.90;72.10
67050;DHT22;53955;52.442;13.284;2022-10-31T10:05:38;19.00;72.00
67050;DHT22;53955;52.442;13.284;2022-10-31T10:08:10;19.20;71.30
67050;DHT22;53955;52.442;13.284;2022-10-31T10:10:45;19.30;70.70
67050;DHT22;53955;52.442;13.284;2022-10-31T10:13:28;19.50;70.20
67050;DHT22;53955;52.442;13.284;2022-10-31T10:16:19;19.50;70.70
67050;DHT22;53955;52.442;13.284;2022-10-31T10:19:02;19.40;71.50
67050;DHT22;53955;52.442;13.284;2022-10-31T10:21:38;19.30;71.30
67050;DHT22;53955;52.442;13.284;2022-10-31T10:24:24;19.40;71.40
67050;DHT22;53955;52.442;13.284;2022-10-31T10:27:11;19.40;71.00
67050;DHT22;53955;52.442;13.284;2022-10-31T10:29:44;19.40;71.00
67050;DHT22;53955;52.442;13.284;2022-10-31T10:32:22;19.50;71.00
67050;DHT22;53955;52.442;13.284;2022-10-31T10:34:51;19.60;70.90
67050;DHT22;53955;52.442;13.284;2022-10-31T10:37:26;19.60;70.70
67050;DHT22;53955;52.442;13.284;2022-10-31T10:39:56;19.70;69.90
67050;DHT22;53955;52.442;13.284;2022-10-31T10:42:27;19.80;70.00
67050;DHT22;53955;52.442;13.284;2022-10-31T10:45:15;20.00;69.50
67050;DHT22;53955;52.442;13.284;2022-10-31T10:48:06;20.10;69.10
67050;DHT22;53955;52.442;13.284;2022-10-31T10:50:38;20.10;68.80
67050;DHT22;53955;52.442;13.284;2022-10-31T10:53:13;20.00;68.20
67050;DHT22;53955;52.442;13.284;2022-10-31T10:55:52;20.00;69.50
67050;DHT22;53955;52.442;13.284;2022-10-31T10:58:19;20.10;69.20
67050;DHT22;53955;52.442;13.284;2022-10-31T11:00:47;20.10;69.40
67050;DHT22;53955;52.442;13.284;2022-10-31T11:03:17;20.20;69.40
67050;DHT22;53955;52.442;13.284;2022-10-31T11:05:48;20.20;68.80
67050;DHT22;53955;52.442;13.284;2022-10-31T11:08:24;20.20;69.00
67050;DHT22;53955;52.442;13.284;2022-10-31T11:10:59;20.20;69.30
67050;DHT22;53955;52.442;13.284;2022-10-31T11:13:28;20.30;68.80
67050;DHT22;53955;52.442;13.284;2022-10-31T11:16:01;20.20;69.20
67050;DHT22;53955;52.442;13.284;2022-10-31T11:18:32;20.40;67.90
67050;DHT22;53955;52.442;13.284;2022-10-31T11:21:02;20.40;69.00
67050;DHT22;53955;52.442;13.284;2022-10-31T11:23:30;20.50;68.90
67050;DHT22;53955;52.442;13.284;2022-10-31T11:25:58;20.70;68.40
67050;DHT22;53955;52.442;13.284;2022-10-31T11:28:25;20.70;67.80
67050;DHT22;53955;52.442;13.284;2022-10-31T11:30:55;20.80;67.80
67050;DHT22;53955;52.442;13.284;2022-10-31T11:33:27;20.80;68.20
67050;DHT22;53955;52.442;13.284;2022-10-31T11:35:57;20.90;66.10
67050;DHT22;53955;52.442;13.284;2022-10-31T11:38:26;21.00;66.20
67050;DHT22;53955;52.442;13.284;2022-10-31T11:40:58;21.00;66.50
67050;DHT22;53955;52.442;13.284;2022-10-31T11:43:26;21.10;66.40
67050;DHT22;53955;52.442;13.284;2022-10-31T11:45:53;21.00;65.90
67050;DHT22;53955;52.442;13.284;2022-10-31T11:48:22;21.10;66.00
67050;DHT22;53955;52.442;13.284;2022-10-31T11:50:50;21.10;66.80
67050;DHT22;53955;52.442;13.284;2022-10-31T11:53:21;21.00;65.70
67050;DHT22;53955;52.442;13.284;2022-10-31T11:56:02;21.00;66.10
67050;DHT22;53955;52.442;13.284;2022-10-31T11:58:29;21.00;66.60
67050;DHT22;53955;52.442;13.284;2022-10-31T12:00:57;20.90;66.90
67050;DHT22;53955;52.442;13.284;2022-10-31T12:03:33;20.90;66.50
67050;DHT22;53955;52.442;13.284;2022-10-31T12:06:05;20.90;67.80
67050;DHT22;53955;52.442;13.284;2022-10-31T12:08:35;21.00;66.80
67050;DHT22;53955;52.442;13.284;2022-10-31T12:11:10;21.00;66.60
67050;DHT22;53955;52.442;13.284;2022-10-31T12:13:41;20.90;66.70
67050;DHT22;53955;52.442;13.284;2022-10-31T12:16:17;20.90;66.30
67050;DHT22;53955;52.442;13.284;2022-10-31T12:18:56;20.90;66.60
67050;DHT22;53955;52.442;13.284;2022-10-31T12:21:36;21.00;66.70
67050;DHT22;53955;52.442;13.284;2022-10-31T12:24:17;20.90;66.70
67050;DHT22;53955;52.442;13.284;2022-10-31T12:26:50;21.00;66.80
67050;DHT22;53955;52.442;13.284;2022-10-31T12:29:29;21.00;67.20
67050;DHT22;53955;52.442;13.284;2022-10-31T12:32:11;21.00;66.90
67050;DHT22;53955;52.442;13.284;2022-10-31T12:35:15;21.00;66.10
67050;DHT22;53955;52.442;13.284;2022-10-31T12:37:57;21.10;66.00
67050;DHT22;53955;52.442;13.284;2022-10-31T12:40:40;21.00;66.50
67050;DHT22;53955;52.442;13.284;2022-10-31T12:43:19;21.10;66.80
67050;DHT22;53955;52.442;13.284;2022-10-31T12:45:53;21.00;66.50
67050;DHT22;53955;52.442;13.284;2022-10-31T12:48:44;21.10;67.10
67050;DHT22;53955;52.442;13.284;2022-10-31T12:51:18;21.10;66.50
67050;DHT22;53955;52.442;13.284;2022-10-31T12:54:01;21.10;66.40
67050;DHT22;53955;52.442;13.284;2022-10-31T12:56:41;21.10;66.00
67050;DHT22;53955;52.442;13.284;2022-10-31T12:59:20;21.10;66.90
67050;DHT22;53955;52.442;13.284;2022-10-31T13:01:50;21.00;67.00
67050;DHT22;53955;52.442;13.284;2022-10-31T13:04:24;21.20;66.90
67050;DHT22;53955;52.442;13.284;2022-10-31T13:06:58;21.10;66.60
67050;DHT22;53955;52.442;13.284;2022-10-31T13:09:31;21.20;66.60
67050;DHT22;53955;52.442;13.284;2022-10-31T13:12:04;21.10;66.80
67050;DHT22;53955;52.442;13.284;2022-10-31T13:14:35;21.10;66.80
67050;DHT22;53955;52.442;13.284;2022-10-31T13:17:04;21.10;66.90
67050;DHT22;53955;52.442;13.284;2022-10-31T13:19:34;21.10;66.40
67050;DHT22;53955;52.442;13.284;2022-10-31T13:22:05;21.20;66.70
67050;DHT22;53955;52.442;13.284;2022-10-31T13:24:38;21.10;66.90
67050;DHT22;53955;52.442;13.284;2022-10-31T13:27:14;21.10;67.00
67050;DHT22;53955;52.442;13.284;2022-10-31T13:29:47;21.00;66.80
67050;DHT22;53955;52.442;13.284;2022-10-31T13:32:20;21.00;67.70
67050;DHT22;53955;52.442;13.284;2022-10-31T13:34:49;20.90;68.40
67050;DHT22;53955;52.442;13.284;2022-10-31T13:37:26;21.00;67.40
67050;DHT22;53955;52.442;13.284;2022-10-31T13:40:11;21.00;67.70
67050;DHT22;53955;52.442;13.284;2022-10-31T13:42:49;20.90;67.80
67050;DHT22;53955;52.442;13.284;2022-10-31T13:45:19;20.90;68.70
67050;DHT22;53955;52.442;13.284;2022-10-31T13:47:56;20.80;69.70
67050;DHT22;53955;52.442;13.284;2022-10-31T13:50:24;20.70;69.60
67050;DHT22;53955;52.442;13.284;2022-10-31T13:52:51;20.70;69.70
67050;DHT22;53955;52.442;13.284;2022-10-31T13:55:38;20.70;70.30
67050;DHT22;53955;52.442;13.284;2022-10-31T13:58:21;20.50;70.80
67050;DHT22;53955;52.442;13.284;2022-10-31T14:01:00;20.50;70.40
67050;DHT22;53955;52.442;13.284;2022-10-31T14:03:28;20.40;71.10
67050;DHT22;53955;52.442;13.284;2022-10-31T14:05:56;20.40;71.00
67050;DHT22;53955;52.442;13.284;2022-10-31T14:08:23;20.30;71.30
67050;DHT22;53955;52.442;13.284;2022-10-31T14:10:51;20.40;71.00
67050;DHT22;53955;52.442;13.284;2022-10-31T14:13:23;20.40;71.30
67050;DHT22;53955;52.442;13.284;2022-10-31T14:15:54;20.30;71.30
67050;DHT22;53955;52.442;13.284;2022-10-31T14:18:24;20.30;71.90
67050;DHT22;53955;52.442;13.284;2022-10-31T14:20:51;20.30;71.40
67050;DHT22;53955;52.442;13.284;2022-10-31T14:23:37;20.20;71.90
67050;DHT22;53955;52.442;13.284;2022-10-31T14:26:07;20.10;72.00
67050;DHT22;53955;52.442;13.284;2022-10-31T14:28:44;20.00;72.10
67050;DHT22;53955;52.442;13.284;2022-10-31T14:31:30;20.00;72.80
67050;DHT22;53955;52.442;13.284;2022-10-31T14:33:59;19.90;73.00
67050;DHT22;53955;52.442;13.284;2022-10-31T14:36:33;19.70;73.30
67050;DHT22;53955;52.442;13.284;2022-10-31T14:39:07;19.60;73.70
67050;DHT22;53955;52.442;13.284;2022-10-31T14:41:50;19.50;73.80
67050;DHT22;53955;52.442;13.284;2022-10-31T14:44:39;19.50;74.00
67050;DHT22;53955;52.442;13.284;2022-10-31T14:47:16;19.50;73.90
67050;DHT22;53955;52.442;13.284;2022-10-31T14:50:05;19.40;73.90
67050;DHT22;53955;52.442;13.284;2022-10-31T14:52:35;19.40;74.50
67050;DHT22;53955;52.442;13.284;2022-10-31T14:55:06;19.30;73.90
67050;DHT22;53955;52.442;13.284;2022-10-31T14:57:36;19.20;74.60
67050;DHT22;53955;52.442;13.284;2022-10-31T15:00:12;19.10;74.90
67050;DHT22;53955;52.442;13.284;2022-10-31T15:02:45;18.90;75.40
67050;DHT22;53955;52.442;13.284;2022-10-31T15:05:15;18.90;75.60
67050;DHT22;53955;52.442;13.284;2022-10-31T15:07:48;18.90;75.20
67050;DHT22;53955;52.442;13.284;2022-10-31T15:10:21;18.90;75.60
67050;DHT22;53955;52.442;13.284;2022-10-31T15:12:48;18.90;75.70
67050;DHT22;53955;52.442;13.284;2022-10-31T15:15:22;18.80;75.90
67050;DHT22;53955;52.442;13.284;2022-10-31T15:17:52;18.70;76.00
67050;DHT22;53955;52.442;13.284;2022-10-31T15:20:21;18.60;76.40
67050;DHT22;53955;52.442;13.284;2022-10-31T15:22:49;18.50;76.30
67050;DHT22;53955;52.442;13.284;2022-10-31T15:25:18;18.50;76.90
67050;DHT22;53955;52.442;13.284;2022-10-31T15:27:46;18.50;76.80
67050;DHT22;53955;52.442;13.284;2022-10-31T15:30:20;18.50;76.90
67050;DHT22;53955;52.442;13.284;2022-10-31T15:32:47;18.30;77.20
67050;DHT22;53955;52.442;13.284;2022-10-31T15:35:23;18.30;77.20
67050;DHT22;53955;52.442;13.284;2022-10-31T15:37:51;18.20;77.20